createdAt,value
2022-08-19T00:08:58.643Z,70.00
2022-08-19T00:18:31.910Z,69.85
2022-08-19T00:28:06.462Z,69.78
2022-08-19T00:37:40.898Z,69.34
2022-08-19T00:47:16.134Z,69.52
2022-08-19T00:56:52.140Z,69.29
2022-08-19T01:06:26.698Z,69.44
2022-08-19T01:15:59.718Z,69.36
2022-08-19T01:25:35.831Z,69.48
2022-08-19T01:35:09.165Z,69.60
2022-08-19T01:44:45.675Z,69.11
2022-08-19T01:54:22.991Z,69.42
2022-08-19T02:03:53.240Z,69.16
2022-08-19T02:13:29.113Z,69.52
2022-08-19T02:23:01.644Z,68.88
2022-08-19T02:32:36.250Z,68.93
2022-08-19T02:42:10.268Z,68.98
2022-08-19T02:51:44.981Z,68.72
2022-08-19T03:01:21.298Z,68.62
2022-08-19T03:10:54.182Z,68.36
2022-08-19T03:20:28.449Z,68.77
2022-08-19T03:30:02.912Z,69.02
2022-08-19T03:39:37.574Z,69.09
2022-08-19T03:49:14.081Z,69.44
2022-08-19T03:58:47.615Z,69.78
2022-08-19T04:08:19.870Z,70.48
2022-08-19T04:17:55.753Z,71.12
2022-08-19T04:27:29.756Z,71.63
2022-08-19T04:37:02.235Z,72.26
2022-08-19T04:46:39.749Z,72.17
2022-08-19T04:56:16.557Z,72.44
2022-08-19T05:05:46.203Z,73.14
2022-08-19T05:15:21.054Z,72.77
2022-08-19T05:25:12.067Z,72.74
2022-08-19T05:34:29.939Z,72.40
2022-08-19T05:44:06.246Z,72.59
2022-08-19T05:53:45.403Z,72.04
2022-08-19T05:54:47.577Z,71.66
2022-08-19T06:04:21.550Z,70.68
2022-08-19T06:13:59.900Z,70.67
2022-08-19T06:23:31.397Z,70.32
2022-08-19T06:24:34.277Z,70.41
2022-08-19T06:25:42.263Z,70.19
2022-08-19T06:36:18.035Z,69.93
2022-08-19T06:37:20.423Z,69.56
2022-08-19T06:38:24.916Z,69.40
2022-08-19T06:39:28.895Z,69.16
2022-08-19T06:40:32.918Z,69.01
2022-08-19T06:41:37.086Z,68.94
2022-08-19T06:42:39.730Z,68.77
2022-08-19T06:43:43.755Z,68.68
2022-08-19T06:44:48.212Z,68.59
2022-08-19T06:45:48.660Z,68.60
2022-08-19T06:46:53.532Z,68.48
2022-08-19T06:47:55.208Z,68.30
2022-08-19T06:57:29.701Z,69.93
2022-08-19T06:58:38.048Z,69.85
2022-08-19T06:59:42.414Z,69.57
2022-08-19T07:00:46.349Z,69.24
2022-08-19T07:01:53.932Z,68.46
2022-08-19T07:03:00.183Z,68.78
2022-08-19T07:04:00.357Z,68.69
2022-08-19T07:05:02.757Z,69.22
2022-08-19T07:06:07.150Z,69.27
2022-08-19T07:15:38.310Z,68.96
2022-08-19T07:16:42.974Z,69.25
2022-08-19T07:17:46.759Z,68.69
2022-08-19T07:18:51.650Z,68.67
2022-08-19T07:19:54.309Z,68.82
2022-08-19T07:20:56.583Z,68.16
2022-08-19T07:21:59.140Z,69.22
2022-08-19T07:23:01.636Z,67.67
2022-08-19T07:24:05.475Z,67.12
2022-08-19T07:25:09.723Z,68.45
2022-08-19T07:26:12.008Z,67.07
2022-08-19T07:27:15.383Z,66.50
2022-08-19T07:28:22.486Z,66.72
2022-08-19T07:29:19.658Z,66.38
2022-08-19T07:30:22.199Z,65.94
2022-08-19T07:31:24.669Z,65.54
2022-08-19T07:32:27.250Z,65.87
2022-08-19T07:33:30.804Z,65.99
2022-08-19T07:34:33.226Z,65.29
2022-08-19T07:35:37.245Z,65.41
2022-08-19T07:36:39.701Z,64.93
2022-08-19T07:37:42.187Z,64.50
2022-08-19T07:38:44.745Z,64.60
2022-08-19T07:39:47.280Z,64.77
2022-08-19T07:40:49.759Z,64.62
2022-08-19T07:41:52.338Z,64.96
2022-08-19T07:42:56.414Z,64.86
2022-08-19T07:43:59.266Z,64.49
2022-08-19T07:45:01.817Z,63.68
2022-08-19T07:47:12.043Z,64.58
2022-08-19T07:48:14.092Z,64.60
2022-08-19T07:49:18.189Z,63.76
2022-08-19T07:50:23.812Z,63.73
2022-08-19T07:59:53.039Z,63.64
2022-08-19T08:00:56.062Z,64.26
2022-08-19T08:01:58.790Z,63.17
2022-08-19T08:11:33.734Z,63.05
2022-08-19T08:12:39.125Z,63.86
2022-08-19T08:13:41.481Z,62.57
2022-08-19T08:14:44.242Z,61.81
2022-08-19T08:15:46.753Z,61.94
2022-08-19T08:16:51.016Z,62.28
2022-08-19T08:17:53.453Z,63.08
2022-08-19T08:18:55.999Z,62.08
2022-08-19T08:19:59.553Z,61.96
2022-08-19T08:21:01.979Z,62.61
2022-08-19T08:22:04.553Z,62.31
2022-08-19T08:23:08.883Z,62.86
2022-08-19T08:24:11.295Z,62.61
2022-08-19T08:25:13.917Z,61.08
2022-08-19T08:26:16.720Z,61.96
2022-08-19T08:27:22.611Z,60.63
2022-08-19T08:28:23.409Z,61.00
2022-08-19T08:29:26.943Z,60.90
2022-08-19T08:30:31.097Z,60.09
2022-08-19T08:31:32.251Z,59.56
2022-08-19T08:32:34.859Z,60.54
2022-08-19T08:33:37.428Z,60.92
2022-08-19T08:34:41.590Z,60.61
2022-08-19T08:35:45.679Z,61.28
2022-08-19T08:36:48.148Z,60.63
2022-08-19T08:37:51.138Z,60.10
2022-08-19T08:40:00.389Z,60.30
2022-08-19T08:41:02.896Z,60.69
2022-08-19T08:42:10.132Z,60.25
2022-08-19T08:43:10.940Z,60.64
2022-08-19T08:44:17.235Z,60.49
2022-08-19T08:45:17.597Z,60.16
2022-08-19T08:46:31.225Z,60.32
2022-08-19T08:47:23.868Z,59.96
2022-08-19T08:48:32.316Z,60.07
2022-08-19T08:49:34.483Z,59.91
2022-08-19T08:50:37.060Z,60.32
2022-08-19T08:51:39.436Z,59.97
2022-08-19T08:52:51.811Z,60.44
2022-08-19T08:53:56.073Z,60.53
2022-08-19T08:54:59.423Z,60.33
2022-08-19T08:56:01.895Z,59.67
2022-08-19T08:57:06.008Z,59.29
2022-08-19T08:58:10.112Z,59.62
2022-08-19T08:59:12.477Z,59.50
2022-08-19T09:00:15.425Z,58.84
2022-08-19T09:01:17.514Z,58.33
2022-08-19T09:02:21.535Z,58.70
2022-08-19T09:03:25.595Z,58.48
2022-08-19T09:04:27.952Z,58.34
2022-08-19T09:05:37.689Z,58.76
2022-08-19T09:06:32.988Z,58.49
2022-08-19T09:07:38.800Z,57.24
2022-08-19T09:08:41.192Z,58.22
2022-08-19T09:09:45.165Z,57.88
2022-08-19T09:10:47.602Z,58.09
2022-08-19T09:11:50.127Z,58.64
2022-08-19T09:12:52.663Z,57.81
2022-08-19T09:13:58.219Z,57.40
2022-08-19T09:15:00.362Z,57.06
2022-08-19T09:16:02.855Z,56.85
2022-08-19T09:17:07.020Z,57.21
2022-08-19T09:18:15.219Z,57.32
2022-08-19T09:19:13.656Z,55.83
2022-08-19T09:20:16.222Z,56.17
2022-08-19T09:21:24.128Z,56.61
2022-08-19T09:22:25.896Z,56.14
2022-08-19T09:23:26.852Z,56.38
2022-08-19T09:24:31.154Z,56.30
2022-08-19T09:25:33.638Z,56.76
2022-08-19T09:26:47.707Z,55.98
2022-08-19T09:27:42.695Z,56.33
2022-08-19T09:28:43.847Z,56.12
2022-08-19T09:29:46.106Z,56.17
2022-08-19T09:30:53.016Z,55.77
2022-08-19T09:31:55.179Z,55.65
2022-08-19T09:32:57.664Z,55.08
2022-08-19T09:34:01.805Z,54.53
2022-08-19T09:35:04.438Z,54.70
2022-08-19T09:36:08.508Z,54.42
2022-08-19T09:37:14.347Z,53.93
2022-08-19T09:38:16.550Z,54.52
2022-08-19T09:39:18.993Z,54.09
2022-08-19T09:40:21.624Z,53.61
2022-08-19T09:41:24.084Z,54.09
2022-08-19T09:42:30.175Z,53.57
2022-08-19T09:43:33.413Z,54.51
2022-08-19T09:44:31.871Z,54.53
2022-08-19T09:45:34.494Z,54.96
2022-08-19T09:46:38.750Z,55.00
2022-08-19T09:47:41.247Z,54.58
2022-08-19T09:48:43.881Z,54.38
2022-08-19T09:49:46.481Z,53.62
2022-08-19T09:50:51.392Z,53.98
2022-08-19T09:51:53.372Z,53.64
2022-08-19T09:52:57.620Z,54.30
2022-08-19T09:53:58.601Z,54.60
2022-08-19T09:55:07.081Z,53.32
2022-08-19T09:56:05.148Z,54.95
2022-08-19T09:57:07.754Z,53.10
2022-08-19T09:58:10.125Z,54.21
2022-08-19T09:59:14.255Z,53.72
2022-08-19T10:00:16.758Z,53.73
2022-08-19T10:01:19.305Z,53.79
2022-08-19T10:02:22.005Z,53.82
2022-08-19T10:03:29.828Z,53.64
2022-08-19T10:04:28.302Z,54.10
2022-08-19T10:05:30.828Z,53.56
2022-08-19T10:06:43.248Z,52.82
2022-08-19T10:07:38.655Z,53.00
2022-08-19T10:08:49.848Z,52.75
2022-08-19T10:09:45.142Z,53.07
2022-08-19T10:10:47.712Z,50.89
2022-08-19T10:11:54.772Z,50.55
2022-08-19T10:12:56.002Z,51.22
2022-08-19T10:14:01.039Z,51.93
2022-08-19T10:15:05.001Z,51.46
2022-08-19T10:16:07.379Z,51.63
2022-08-19T10:17:18.368Z,50.40
2022-08-19T10:18:12.322Z,49.95
2022-08-19T10:19:15.004Z,49.46
2022-08-19T10:20:18.475Z,50.05
2022-08-19T10:21:22.494Z,50.08
2022-08-19T10:22:25.562Z,50.23
2022-08-19T10:23:27.322Z,49.21
2022-08-19T10:24:29.928Z,49.95
2022-08-19T10:25:32.419Z,48.85
2022-08-19T10:26:34.943Z,49.25
2022-08-19T10:27:37.487Z,49.09
2022-08-19T10:28:39.962Z,49.08
2022-08-19T10:29:46.340Z,49.59
2022-08-19T10:30:46.598Z,49.30
2022-08-19T10:32:00.217Z,48.65
2022-08-19T10:32:51.641Z,48.68
2022-08-19T10:33:54.290Z,48.16
2022-08-19T10:34:57.037Z,46.77
2022-08-19T10:35:59.176Z,48.11
2022-08-19T10:37:02.123Z,47.78
2022-08-19T10:38:04.532Z,47.05
2022-08-19T10:39:06.777Z,47.46
2022-08-19T10:40:09.423Z,48.02
2022-08-19T10:41:11.864Z,47.18
2022-08-19T10:42:14.607Z,47.11
2022-08-19T10:43:16.894Z,46.92
2022-08-19T10:52:50.782Z,45.66
2022-08-19T10:53:52.762Z,46.06
2022-08-19T10:54:55.312Z,46.34
2022-08-19T10:55:57.933Z,45.84
2022-08-19T10:57:01.982Z,46.17
2022-08-19T10:58:06.170Z,46.26
2022-08-19T10:59:08.288Z,45.37
2022-08-19T11:00:10.813Z,46.37
2022-08-19T11:01:14.968Z,46.69
2022-08-19T11:02:18.991Z,46.96
2022-08-19T11:03:22.951Z,45.46
2022-08-19T11:04:28.831Z,45.70
2022-08-19T11:05:29.590Z,45.55
2022-08-19T11:06:31.964Z,45.48
2022-08-19T11:07:36.062Z,44.20
2022-08-19T11:08:40.147Z,44.71
2022-08-19T11:09:44.119Z,44.69
2022-08-19T11:10:50.345Z,44.15
2022-08-19T11:11:50.656Z,44.46
2022-08-19T11:12:53.180Z,42.38
2022-08-19T11:13:55.730Z,43.92
2022-08-19T11:14:58.333Z,43.11
2022-08-19T11:16:03.948Z,43.68
2022-08-19T11:17:03.448Z,43.47
2022-08-19T11:18:07.727Z,43.46
2022-08-19T11:19:11.707Z,42.42
2022-08-19T11:20:14.284Z,43.21
2022-08-19T11:21:18.461Z,42.12
2022-08-19T11:22:22.468Z,40.91
2022-08-19T11:23:24.950Z,40.38
2022-08-19T11:24:27.486Z,40.71
2022-08-19T11:25:29.973Z,40.19
2022-08-19T11:26:32.551Z,39.24
2022-08-19T11:27:35.156Z,39.67
2022-08-19T11:28:37.750Z,39.90
2022-08-19T11:29:40.289Z,38.77
2022-08-19T11:30:42.974Z,39.11
2022-08-19T11:31:45.517Z,38.97
2022-08-19T11:32:49.487Z,39.86
2022-08-19T11:33:52.143Z,40.34
2022-08-19T11:34:56.193Z,39.42
2022-08-19T11:36:00.142Z,39.19
2022-08-19T11:37:02.516Z,39.54
2022-08-19T11:38:08.285Z,39.75
2022-08-19T11:39:07.712Z,38.52
2022-08-19T11:40:11.993Z,40.36
2022-08-19T11:41:14.316Z,38.58
2022-08-19T11:42:17.062Z,39.97
2022-08-19T11:43:19.570Z,40.73
2022-08-19T11:44:23.664Z,39.92
2022-08-19T11:45:26.113Z,39.81
2022-08-19T11:46:28.675Z,39.94
2022-08-19T11:47:31.172Z,40.46
2022-08-19T11:48:33.726Z,39.99
2022-08-19T11:49:37.827Z,40.62
2022-08-19T11:50:44.085Z,40.08
2022-08-19T11:51:46.403Z,40.82
2022-08-19T11:52:48.959Z,40.07
2022-08-19T11:53:56.522Z,41.00
2022-08-19T11:54:58.811Z,40.45
2022-08-19T11:56:01.341Z,39.71
2022-08-19T11:57:03.861Z,39.57
2022-08-19T11:58:06.366Z,39.24
2022-08-19T11:59:12.833Z,39.65
2022-08-19T12:08:42.263Z,39.05
2022-08-19T12:09:44.878Z,39.58
2022-08-19T12:10:47.331Z,37.99
2022-08-19T12:11:49.923Z,39.17
2022-08-19T12:12:58.032Z,38.92
2022-08-19T12:13:58.136Z,39.37
2022-08-19T12:15:00.476Z,39.20
2022-08-19T12:16:04.570Z,39.87
2022-08-19T12:17:08.573Z,39.59
2022-08-19T12:18:12.584Z,39.16
2022-08-19T12:19:14.972Z,40.09
2022-08-19T12:20:17.494Z,39.53
2022-08-19T12:21:21.604Z,39.67
2022-08-19T12:22:25.677Z,39.52
2022-08-19T12:23:28.201Z,38.73
2022-08-19T12:24:30.688Z,39.20
2022-08-19T12:25:33.268Z,38.01
2022-08-19T12:26:35.968Z,35.90
2022-08-19T12:27:40.549Z,36.60
2022-08-19T12:28:40.915Z,38.08
2022-08-19T12:29:43.384Z,37.38
2022-08-19T12:30:45.955Z,36.11
2022-08-19T12:31:48.484Z,37.39
2022-08-19T12:32:51.031Z,37.79
2022-08-19T12:33:53.540Z,37.63
2022-08-19T12:34:56.093Z,36.66
2022-08-19T12:36:00.231Z,37.10
2022-08-19T12:37:02.617Z,37.80
2022-08-19T12:38:05.219Z,37.37
2022-08-19T12:39:07.789Z,37.36
2022-08-19T12:40:10.422Z,36.18
2022-08-19T12:41:12.839Z,35.81
2022-08-19T12:42:16.946Z,35.70
2022-08-19T12:43:19.347Z,35.83
2022-08-19T12:44:29.054Z,35.57
2022-08-19T12:45:24.415Z,36.34
2022-08-19T12:46:28.523Z,33.85
2022-08-19T12:47:30.952Z,34.24
2022-08-19T12:48:35.210Z,34.88
2022-08-19T12:49:54.784Z,35.24
2022-08-19T12:50:40.097Z,34.63
2022-08-19T12:51:42.578Z,34.34
2022-08-19T12:52:45.140Z,34.20
2022-08-19T12:53:47.716Z,33.51
2022-08-19T12:54:50.284Z,32.99
2022-08-19T12:55:54.350Z,32.40
2022-08-19T12:56:56.747Z,33.22
2022-08-19T12:57:59.295Z,32.90
2022-08-19T12:59:01.838Z,33.74
2022-08-19T13:00:04.786Z,33.83
2022-08-19T13:01:07.168Z,32.94
2022-08-19T13:02:09.584Z,33.17
2022-08-19T13:03:13.750Z,33.51
2022-08-19T13:04:17.910Z,33.16
2022-08-19T13:05:20.360Z,32.94
2022-08-19T13:06:22.800Z,33.01
2022-08-19T13:07:25.330Z,32.48
2022-08-19T13:08:27.805Z,32.79
2022-08-19T13:09:30.380Z,33.44
2022-08-19T13:10:34.506Z,32.88
2022-08-19T13:11:36.923Z,33.12
2022-08-19T13:12:39.491Z,33.59
2022-08-19T13:13:42.005Z,32.93
2022-08-19T13:14:44.658Z,33.49
2022-08-19T13:15:47.198Z,32.82
2022-08-19T13:16:49.786Z,32.58
2022-08-19T13:17:52.350Z,34.63
2022-08-19T13:18:56.474Z,32.71
2022-08-19T13:19:58.928Z,32.51
2022-08-19T13:21:01.548Z,32.82
2022-08-19T13:22:04.038Z,31.21
2022-08-19T13:23:06.569Z,30.25
2022-08-19T13:24:10.635Z,30.30
2022-08-19T13:25:14.657Z,32.29
2022-08-19T13:26:19.997Z,29.42
2022-08-19T13:27:22.282Z,30.30
2022-08-19T13:28:28.964Z,30.75
2022-08-19T13:29:27.327Z,31.94
2022-08-19T13:30:29.881Z,30.36
2022-08-19T13:31:35.369Z,29.57
2022-08-19T13:32:37.753Z,29.40
2022-08-19T13:33:40.301Z,29.55
2022-08-19T13:34:42.797Z,30.27
2022-08-19T13:35:45.342Z,31.02
2022-08-19T13:36:47.981Z,30.07
2022-08-19T13:37:50.602Z,31.42
2022-08-19T13:38:53.144Z,31.09
2022-08-19T13:39:55.747Z,29.64
2022-08-19T13:40:59.323Z,30.99
2022-08-19T13:42:02.838Z,31.14
2022-08-19T13:43:13.626Z,30.70
2022-08-19T13:44:10.894Z,31.19
2022-08-19T13:45:13.344Z,30.33
2022-08-19T13:46:18.753Z,30.29
2022-08-19T13:47:23.767Z,31.29
2022-08-19T13:48:29.837Z,31.13
2022-08-19T13:49:33.703Z,30.28
2022-08-19T13:50:36.265Z,30.99
2022-08-19T13:51:38.726Z,30.36
2022-08-19T13:52:42.917Z,31.96
2022-08-19T13:53:48.112Z,31.35
2022-08-19T13:54:49.246Z,31.49
2022-08-19T13:55:54.794Z,31.25
2022-08-19T13:57:00.057Z,31.46
2022-08-19T13:58:04.000Z,31.02
2022-08-19T13:59:06.396Z,30.49
2022-08-19T14:00:10.487Z,31.11
2022-08-19T14:01:13.084Z,30.35
2022-08-19T14:02:15.580Z,30.14
2022-08-19T14:03:18.121Z,29.94
2022-08-19T14:04:22.326Z,29.63
2022-08-19T14:05:24.732Z,30.31
2022-08-19T14:06:27.250Z,30.42
2022-08-19T14:07:30.000Z,29.77
2022-08-19T14:08:35.527Z,29.35
2022-08-19T14:09:40.404Z,31.53
2022-08-19T14:10:42.790Z,31.93
2022-08-19T14:11:46.961Z,31.35
2022-08-19T14:12:49.382Z,30.74
2022-08-19T14:13:53.515Z,32.01
2022-08-19T14:14:56.057Z,32.10
2022-08-19T14:16:00.210Z,31.75
2022-08-19T14:17:02.623Z,31.44
2022-08-19T14:18:05.212Z,30.18
2022-08-19T14:19:07.825Z,32.11
2022-08-19T14:20:11.307Z,31.10
2022-08-19T14:21:13.098Z,30.54
2022-08-19T14:22:18.555Z,30.26
2022-08-19T14:23:19.666Z,30.34
2022-08-19T14:24:22.187Z,30.81
2022-08-19T14:25:24.921Z,29.70
2022-08-19T14:26:27.436Z,30.32
2022-08-19T14:27:29.982Z,31.72
2022-08-19T14:28:32.502Z,31.06
2022-08-19T14:29:35.034Z,32.19
2022-08-19T14:30:37.602Z,31.84
2022-08-19T14:31:40.151Z,32.35
2022-08-19T14:32:44.315Z,32.03
2022-08-19T14:33:46.715Z,33.35
2022-08-19T14:34:49.207Z,33.32
2022-08-19T14:35:53.314Z,34.79
2022-08-19T14:36:57.453Z,34.52
2022-08-19T14:38:01.671Z,34.12
2022-08-19T14:39:03.704Z,34.35
2022-08-19T14:40:06.310Z,33.54
2022-08-19T14:41:08.765Z,34.78
2022-08-19T14:42:11.661Z,33.62
2022-08-19T14:43:15.521Z,31.67
2022-08-19T14:44:18.023Z,31.53
2022-08-19T14:45:20.593Z,31.67
2022-08-19T14:46:24.822Z,32.94
2022-08-19T14:47:28.957Z,32.10
2022-08-19T14:48:32.884Z,31.97
2022-08-19T14:49:42.378Z,31.78
2022-08-19T14:50:44.075Z,33.35
2022-08-19T14:51:46.559Z,31.79
2022-08-19T14:52:50.810Z,32.13
2022-08-19T14:53:54.747Z,32.51
2022-08-19T14:55:00.805Z,32.88
2022-08-19T14:56:03.121Z,32.86
2022-08-19T14:57:07.512Z,31.45
2022-08-19T14:58:28.285Z,32.26
2022-08-19T14:59:15.603Z,32.36
2022-08-19T15:00:19.174Z,31.49
2022-08-19T15:01:21.758Z,31.68
2022-08-19T15:02:33.460Z,31.84
2022-08-19T15:03:27.004Z,31.49
2022-08-19T15:04:33.313Z,32.62
2022-08-19T15:05:33.799Z,31.78
2022-08-19T15:06:37.974Z,31.20
2022-08-19T15:07:40.370Z,32.62
2022-08-19T15:08:42.943Z,32.14
2022-08-19T15:09:45.495Z,32.13
2022-08-19T15:10:48.021Z,30.37
2022-08-19T15:11:52.397Z,30.99
2022-08-19T15:12:57.745Z,31.42
2022-08-19T15:13:59.790Z,31.15
2022-08-19T15:15:03.979Z,30.09
2022-08-19T15:16:06.597Z,29.81
2022-08-19T15:17:09.123Z,29.73
2022-08-19T15:18:11.699Z,29.29
2022-08-19T15:19:14.308Z,31.06
2022-08-19T15:20:18.497Z,30.06
2022-08-19T15:21:26.455Z,29.82
2022-08-19T15:22:25.081Z,29.24
2022-08-19T15:23:27.585Z,29.13
2022-08-19T15:24:30.175Z,29.59
2022-08-19T15:25:32.687Z,29.94
2022-08-19T15:26:35.295Z,29.20
2022-08-19T15:27:37.869Z,29.80
2022-08-19T15:28:42.001Z,30.37
2022-08-19T15:29:44.444Z,29.35
2022-08-19T15:30:46.902Z,30.32
2022-08-19T15:31:54.405Z,30.48
2022-08-19T15:33:01.610Z,29.05
2022-08-19T15:34:05.396Z,29.59
2022-08-19T15:35:07.833Z,29.86
2022-08-19T15:36:10.280Z,29.89
2022-08-19T15:37:12.892Z,30.25
2022-08-19T15:38:15.471Z,30.15
2022-08-19T15:39:17.955Z,29.85
2022-08-19T15:40:22.135Z,29.94
2022-08-19T15:41:24.491Z,30.32
2022-08-19T15:42:29.733Z,30.25
2022-08-19T15:43:31.117Z,30.51
2022-08-19T15:44:33.608Z,30.60
2022-08-19T15:45:36.204Z,29.58
2022-08-19T15:46:40.446Z,29.45
2022-08-19T15:47:42.797Z,29.76
2022-08-19T15:48:45.425Z,29.83
2022-08-19T15:49:47.867Z,30.85
2022-08-19T15:50:50.422Z,29.33
2022-08-19T15:51:53.029Z,30.47
2022-08-19T15:52:57.152Z,30.32
2022-08-19T15:53:59.586Z,30.17
2022-08-19T15:55:03.680Z,29.49
2022-08-19T15:56:06.093Z,30.95
2022-08-19T15:57:08.658Z,30.44
2022-08-19T15:58:20.524Z,30.71
2022-08-19T15:59:15.272Z,31.18
2022-08-19T16:00:19.448Z,30.93
2022-08-19T16:01:21.881Z,31.92
2022-08-19T16:02:24.358Z,31.76
2022-08-19T16:03:26.965Z,30.14
2022-08-19T16:04:29.536Z,30.29
2022-08-19T16:05:32.142Z,31.33
2022-08-19T16:06:36.237Z,30.85
2022-08-19T16:07:38.671Z,31.10
2022-08-19T16:08:47.920Z,30.79
2022-08-19T16:09:43.916Z,31.11
2022-08-19T16:10:46.431Z,30.53
2022-08-19T16:11:56.414Z,29.95
2022-08-19T16:12:53.103Z,30.94
2022-08-19T16:13:55.492Z,30.13
2022-08-19T16:14:58.060Z,29.74
2022-08-19T16:16:00.676Z,31.07
2022-08-19T16:17:03.267Z,30.68
2022-08-19T16:18:05.853Z,30.54
2022-08-19T16:19:10.186Z,30.67
2022-08-19T16:20:12.494Z,30.71
2022-08-19T16:21:15.014Z,30.45
2022-08-19T16:22:17.617Z,30.33
2022-08-19T16:23:25.085Z,29.20
2022-08-19T16:24:30.456Z,29.35
2022-08-19T16:25:34.340Z,29.95
2022-08-19T16:26:36.692Z,29.57
2022-08-19T16:27:39.188Z,29.86
2022-08-19T16:28:43.299Z,29.57
2022-08-19T16:29:45.640Z,31.17
2022-08-19T16:30:51.191Z,30.28
2022-08-19T16:31:52.157Z,31.64
2022-08-19T16:32:56.258Z,31.26
2022-08-19T16:34:00.220Z,31.50
2022-08-19T16:35:06.462Z,31.45
2022-08-19T16:36:07.142Z,30.86
2022-08-19T16:37:07.688Z,32.37
2022-08-19T16:38:11.831Z,31.37
2022-08-19T16:39:15.863Z,31.53
2022-08-19T16:40:18.288Z,32.31
2022-08-19T16:41:20.747Z,32.59
2022-08-19T16:42:23.255Z,31.94
2022-08-19T16:43:25.774Z,31.34
2022-08-19T16:44:30.133Z,31.89
2022-08-19T16:45:32.422Z,32.30
2022-08-19T16:46:35.974Z,32.74
2022-08-19T16:47:38.451Z,31.53
2022-08-19T16:48:42.604Z,31.68
2022-08-19T16:49:52.520Z,32.34
2022-08-19T16:50:49.854Z,31.90
2022-08-19T16:51:51.636Z,31.79
2022-08-19T16:52:55.827Z,32.23
2022-08-19T16:53:59.868Z,32.22
2022-08-19T16:55:03.940Z,32.82
2022-08-19T16:56:06.391Z,31.92
2022-08-19T16:57:11.696Z,31.33
2022-08-19T16:58:14.574Z,32.10
2022-08-19T16:59:17.017Z,31.49
2022-08-19T17:00:19.568Z,31.22
2022-08-19T17:01:22.134Z,32.02
2022-08-19T17:02:29.624Z,31.77
2022-08-19T17:03:36.673Z,31.55
2022-08-19T17:04:35.475Z,31.40
2022-08-19T17:05:39.354Z,31.99
2022-08-19T17:06:41.779Z,32.16
2022-08-19T17:07:45.863Z,32.32
2022-08-19T17:08:48.919Z,32.45
2022-08-19T17:09:50.796Z,32.41
2022-08-19T17:11:16.829Z,32.61
2022-08-19T17:11:55.804Z,33.66
2022-08-19T17:12:59.849Z,33.84
2022-08-19T17:14:02.283Z,34.17
2022-08-19T17:15:04.795Z,34.12
2022-08-19T17:16:07.321Z,34.03
2022-08-19T17:17:09.785Z,34.60
2022-08-19T17:18:12.329Z,34.46
2022-08-19T17:19:16.497Z,34.43
2022-08-19T17:20:18.917Z,34.85
2022-08-19T17:21:21.463Z,34.53
2022-08-19T17:22:23.974Z,34.52
2022-08-19T17:23:42.162Z,34.37
2022-08-19T17:24:30.601Z,34.63
2022-08-19T17:25:34.630Z,34.74
2022-08-19T17:26:38.510Z,34.91
2022-08-19T17:27:40.972Z,34.30
2022-08-19T17:28:43.411Z,34.85
2022-08-19T17:29:47.101Z,35.31
2022-08-19T17:30:50.047Z,34.98
2022-08-19T17:31:52.431Z,34.60
2022-08-19T17:32:54.945Z,34.31
2022-08-19T17:33:57.471Z,34.35
2022-08-19T17:35:01.636Z,34.04
2022-08-19T17:36:04.017Z,34.69
2022-08-19T17:37:06.543Z,32.82
2022-08-19T17:38:09.057Z,33.76
2022-08-19T17:39:11.627Z,34.21
2022-08-19T17:40:14.218Z,33.54
2022-08-19T17:41:16.689Z,33.98
2022-08-19T17:42:19.208Z,33.56
2022-08-19T17:43:32.535Z,33.97
2022-08-19T17:44:24.317Z,34.15
2022-08-19T17:45:28.431Z,34.18
2022-08-19T17:46:30.834Z,34.47
2022-08-19T17:47:33.311Z,34.17
2022-08-19T17:48:37.448Z,34.25
2022-08-19T17:49:39.869Z,34.41
2022-08-19T17:50:42.299Z,34.51
2022-08-19T17:51:44.825Z,35.37
2022-08-19T17:52:47.434Z,35.23
2022-08-19T17:53:51.529Z,35.79
2022-08-19T17:54:53.962Z,35.45
2022-08-19T17:55:58.158Z,36.42
2022-08-19T17:57:00.548Z,36.08
2022-08-19T17:58:04.676Z,36.67
2022-08-19T17:59:10.850Z,36.88
2022-08-19T18:00:12.711Z,36.46
2022-08-19T18:01:15.131Z,36.23
2022-08-19T18:02:19.855Z,36.50
2022-08-19T18:03:21.871Z,36.50
2022-08-19T18:04:25.982Z,37.29
2022-08-19T18:05:30.028Z,37.20
2022-08-19T18:06:32.485Z,37.28
2022-08-19T18:07:34.999Z,37.19
2022-08-19T18:08:37.518Z,37.06
2022-08-19T18:09:42.965Z,37.59
2022-08-19T18:10:44.446Z,37.95
2022-08-19T18:11:52.495Z,37.61
2022-08-19T18:12:51.130Z,38.26
2022-08-19T18:13:55.233Z,38.14
2022-08-19T18:14:59.253Z,38.19
2022-08-19T18:16:01.600Z,38.68
2022-08-19T18:17:04.111Z,38.58
2022-08-19T18:18:14.820Z,38.92
2022-08-19T18:19:09.146Z,38.77
2022-08-19T18:20:13.484Z,39.13
2022-08-19T18:21:15.871Z,39.29
2022-08-19T18:22:18.270Z,39.83
2022-08-19T18:23:41.139Z,39.67
2022-08-19T18:24:24.977Z,39.93
2022-08-19T18:25:27.373Z,39.60
2022-08-19T18:26:29.806Z,39.80
2022-08-19T18:27:33.962Z,39.74
2022-08-19T18:28:38.031Z,39.93
2022-08-19T18:38:08.010Z,41.81
2022-08-19T18:39:10.595Z,41.50
2022-08-19T18:48:43.974Z,42.76
2022-08-19T18:58:20.763Z,43.08
2022-08-19T19:07:56.439Z,43.75
2022-08-19T19:17:27.764Z,44.53
2022-08-19T19:27:00.476Z,45.27
2022-08-19T19:36:35.755Z,46.15
2022-08-19T19:46:08.203Z,46.96
2022-08-19T19:55:45.363Z,47.32
2022-08-19T20:05:16.326Z,48.13
2022-08-19T20:14:51.785Z,49.18
2022-08-19T20:24:24.478Z,49.87
2022-08-19T20:33:58.928Z,50.50
2022-08-19T20:43:32.759Z,51.07
2022-08-19T20:53:07.444Z,51.58
2022-08-19T21:02:43.586Z,52.33
2022-08-19T21:12:16.219Z,52.15
2022-08-19T21:21:51.318Z,52.95
2022-08-19T21:31:27.559Z,53.85
2022-08-19T21:41:00.375Z,54.82
2022-08-19T21:50:36.365Z,55.70
2022-08-19T22:00:11.190Z,56.05
2022-08-19T22:09:45.746Z,56.66
2022-08-19T22:19:18.611Z,58.21
2022-08-19T22:28:55.062Z,59.65
2022-08-19T22:38:28.436Z,59.91
2022-08-19T22:39:31.060Z,59.88
2022-08-19T22:49:06.957Z,60.08
2022-08-19T22:58:41.411Z,60.58
2022-08-19T23:08:14.375Z,60.65
2022-08-19T23:17:49.155Z,61.19
2022-08-19T23:27:25.202Z,61.18
2022-08-19T23:36:59.475Z,61.81
2022-08-19T23:46:41.020Z,61.92
2022-08-19T23:56:08.586Z,61.57
